Terminal Aerodrome Forecast
Issued by NWS Grand Forks, ND

Home | Current Version | Previous Version | Graphics & Text | Print | Product List | Glossary On
Versions: 1 2 3 4 5 6 7 8 9 10 11 12 13 14 15 16
000
FTUS43 KFGF 210500
TAFFAR
TAF
KFAR 210520Z 2106/2206 32008KT P6SM FEW050 BKN090
     FM211700 33010KT P6SM BKN060
     FM220100 VRB05KT P6SM FEW250=

USA.gov is the U.S. government's official web portal to all federal, state and local government web resources and services.